Time;durP1;ratioP1;P1;durP2;ratioP2;P2;SDS_P1;SDS_P2;PMS_P1;PMS_P2;Temp;Humidity;BMP_temperature;BMP_pressure;BME280_temperature;BME280_humidity;BME280_pressure;Samples;Min_cycle;Max_cycle;Signal;HPM_P1;HPM_P2
2021/12/11 04:16:17;;;;;;;1.40;1.30;;;-0.50;64.00;196.50;224877.00;;;;1402739;26;20223;-87
2021/12/11 04:18:45;;;;;;;1.80;1.60;;;-0.50;53.90;196.50;224877.00;;;;4941059;29;20682;-85
2021/12/11 04:21:13;;;;;;;2.33;1.70;;;-0.50;65.40;196.50;224877.00;;;;4926171;29;20563;-86
2021/12/11 04:23:41;;;;;;;2.30;1.90;;;-0.50;33.60;196.50;224877.00;;;;4926286;29;20200;-85
2021/12/11 04:26:09;;;;;;;2.03;1.80;;;-0.50;22.40;196.50;224877.00;;;;4926203;29;20678;-85
2021/12/11 04:28:40;;;;;;;2.13;1.93;;;-0.60;14.90;196.50;224877.00;;;;4958716;29;20667;-86
2021/12/11 04:31:31;;;;;;;2.17;1.90;;;-0.50;18.90;196.50;224877.00;;;;4941127;29;20222;-86
2021/12/11 04:34:08;;;;;;;2.83;2.20;;;-0.60;6.00;196.50;224877.00;;;;4940762;28;20289;-87
2021/12/11 04:36:43;;;;;;;2.63;2.23;;;-0.60;1.10;196.50;224877.00;;;;4924928;29;20191;-86
2021/12/11 04:39:15;;;;;;;3.47;2.03;;;-0.60;1.40;196.50;224877.00;;;;4924531;29;20199;-86
2021/12/11 04:41:56;;;;;;;2.30;2.00;;;-0.70;1.00;196.50;224877.00;;;;4956639;29;20262;-85
2021/12/11 04:44:37;;;;;;;2.33;2.00;;;-0.70;6.80;196.50;224877.00;;;;4940935;29;20207;-84
2021/12/11 04:47:13;;;;;;;1.90;1.53;;;-0.70;10.70;196.50;224877.00;;;;4956089;29;20207;-83
2021/12/11 04:49:55;;;;;;;2.83;1.67;;;-0.70;10.20;196.50;224877.00;;;;4940189;29;20230;-85
2021/12/11 04:52:44;;;;;;;2.07;1.93;;;-0.60;5.70;196.50;224877.00;;;;4924217;29;20222;-84
2021/12/11 05:00:47;;;;;;;2.20;2.00;;;-0.70;6.10;196.50;224877.00;;;;4939966;29;20281;-83
2021/12/11 05:11:45;;;;;;;3.23;2.60;;;-0.70;24.40;196.50;224877.00;;;;4957485;29;20262;-84
2021/12/11 05:14:16;;;;;;;3.70;3.00;;;-0.70;22.40;196.50;224877.00;;;;4923897;29;20199;-84
2021/12/11 05:16:44;;;;;;;9.70;4.97;;;-0.70;16.80;196.50;224877.00;;;;4923846;29;20258;-84
2021/12/11 05:19:12;;;;;;;4.13;2.83;;;-0.70;22.50;196.50;224877.00;;;;4939543;29;20187;-84
2021/12/11 05:21:40;;;;;;;13.57;5.63;;;-0.70;30.70;196.50;224877.00;;;;4939729;29;20246;-84
2021/12/11 05:27:53;;;;;;;12.67;5.30;;;-0.70;51.70;196.50;224877.00;;;;4957822;28;20200;-84
2021/12/11 05:30:27;;;;;;;3.87;3.27;;;-0.70;64.50;196.50;224877.00;;;;4923339;29;20191;-88
2021/12/11 05:32:58;;;;;;;6.57;3.47;;;-0.70;79.30;196.50;224877.00;;;;4939352;29;20738;-85
2021/12/11 05:35:30;;;;;;;3.73;2.77;;;-0.70;95.20;196.50;224877.00;;;;4939320;29;20622;-84
2021/12/11 05:37:59;;;;;;;4.03;2.70;;;-0.70;99.90;196.50;224877.00;;;;4939337;29;20643;-84
2021/12/11 05:40:29;;;;;;;3.13;2.50;;;-0.70;99.90;196.50;224877.00;;;;4939279;29;20646;-84
2021/12/11 05:42:57;;;;;;;2.20;2.00;;;-0.70;99.90;196.50;224877.00;;;;4939976;29;20206;-84
2021/12/11 05:45:26;;;;;;;2.03;1.83;;;-0.70;99.90;196.50;224877.00;;;;4939115;29;20666;-85
2021/12/11 05:47:54;;;;;;;1.67;1.57;;;-0.70;99.90;196.50;224877.00;;;;4939182;29;20206;-85
2021/12/11 05:50:30;;;;;;;2.43;1.93;;;-0.70;99.90;196.50;224877.00;;;;4938958;29;20729;-84
2021/12/11 05:52:58;;;;;;;2.33;2.00;;;-0.70;99.90;196.50;224877.00;;;;4939312;29;20297;-85
2021/12/11 05:55:28;;;;;;;1.60;1.50;;;-0.70;99.90;196.50;224877.00;;;;4923228;29;20595;-85
2021/12/11 05:57:57;;;;;;;2.67;2.20;;;-0.70;99.90;196.50;224877.00;;;;4923647;29;20195;-85
2021/12/11 06:00:32;;;;;;;2.20;2.00;;;-0.70;99.90;196.50;224877.00;;;;4923393;29;20603;-85
2021/12/11 06:03:03;;;;;;;3.37;2.60;;;-0.70;99.90;196.50;224877.00;;;;4923328;29;20199;-86
2021/12/11 06:05:31;;;;;;;2.70;2.40;;;-0.70;99.90;196.50;224877.00;;;;4940803;29;20196;-86
2021/12/11 06:07:59;;;;;;;3.47;2.50;;;-0.60;99.90;196.50;224877.00;;;;4955273;29;20194;-86
2021/12/11 06:10:27;;;;;;;3.10;2.43;;;-0.70;99.90;196.50;224877.00;;;;4955173;29;20685;-86
2021/12/11 06:13:02;;;;;;;4.00;2.50;;;-0.60;99.90;196.50;224877.00;;;;4939039;29;20750;-86
2021/12/11 06:15:30;;;;;;;3.63;2.80;;;-0.60;99.90;196.50;224877.00;;;;4939095;29;20210;-90
2021/12/11 06:17:58;;;;;;;4.13;3.07;;;-0.60;99.90;196.50;224877.00;;;;4954757;28;20233;-86
2021/12/11 06:20:29;;;;;;;3.87;3.00;;;-0.70;99.90;196.50;224877.00;;;;4939015;29;20210;-85
2021/12/11 06:23:03;;;;;;;7.03;4.67;;;-0.70;99.90;196.50;224877.00;;;;4938932;29;20246;-86
2021/12/11 06:25:34;;;;;;;13.33;5.97;;;-0.70;99.90;196.50;224877.00;;;;4923010;29;20686;-87
2021/12/11 06:28:05;;;;;;;8.37;5.47;;;-0.80;99.90;196.50;224877.00;;;;4939241;29;20663;-86
2021/12/11 06:30:33;;;;;;;9.37;5.77;;;-0.80;99.90;196.50;224877.00;;;;4923457;29;20684;-87
2021/12/11 06:33:00;;;;;;;7.50;4.83;;;-0.80;99.90;196.50;224877.00;;;;4939135;29;20222;-87
2021/12/11 06:36:24;;;;;;;6.63;4.50;;;-0.80;99.90;196.50;224877.00;;;;4940036;29;20653;-88
2021/12/11 06:38:57;;;;;;;6.93;5.07;;;-0.80;99.90;196.50;224877.00;;;;4938938;29;20193;-86
2021/12/11 06:41:37;;;;;;;6.73;5.10;;;-0.80;99.90;196.50;224877.00;;;;4942515;29;20205;-87
2021/12/11 06:44:06;;;;;;;9.87;5.23;;;-0.80;99.90;196.50;224877.00;;;;4926493;29;20856;-87
2021/12/11 06:46:41;;;;;;;8.77;5.90;;;-0.80;99.90;196.50;224877.00;;;;4926376;28;20202;-86
2021/12/11 06:49:10;;;;;;;11.93;6.03;;;-0.80;99.90;196.50;224877.00;;;;4942750;29;20205;-87
2021/12/11 06:51:40;;;;;;;9.93;5.90;;;-0.80;99.90;196.50;224877.00;;;;4942923;28;20738;-87
2021/12/11 06:54:10;;;;;;;9.20;6.47;;;-0.80;99.90;196.50;224877.00;;;;4942876;29;20297;-88
2021/12/11 06:56:40;;;;;;;7.97;5.53;;;-0.80;99.90;196.50;224877.00;;;;4944043;28;20565;-87
2021/12/11 06:59:10;;;;;;;13.97;6.40;;;-0.80;99.90;196.50;224877.00;;;;4927893;29;20287;-88
2021/12/11 07:01:39;;;;;;;10.67;6.90;;;-0.80;99.90;196.50;224877.00;;;;4927153;29;20191;-89
2021/12/11 07:04:09;;;;;;;14.60;7.60;;;-0.80;99.90;196.50;224877.00;;;;4922890;29;20192;-87
2021/12/11 07:06:41;;;;;;;22.40;8.97;;;-0.80;99.90;196.50;224877.00;;;;4942358;29;20229;-88
2021/12/11 07:09:12;;;;;;;17.27;8.60;;;-0.80;99.90;196.50;224877.00;;;;4926839;29;20196;-87
2021/12/11 07:11:44;;;;;;;19.87;8.60;;;-0.80;99.90;196.50;224877.00;;;;4926525;29;20198;-88
2021/12/11 07:14:17;;;;;;;25.37;10.20;;;-0.80;99.90;196.50;224877.00;;;;4941176;29;20207;-87
2021/12/11 07:16:46;;;;;;;21.07;8.93;;;-0.80;99.90;196.50;224877.00;;;;4942238;29;20616;-88
2021/12/11 07:19:15;;;;;;;29.37;10.57;;;-0.80;99.90;196.50;224877.00;;;;4941882;29;20222;-87
2021/12/11 07:21:50;;;;;;;36.70;10.40;;;-0.70;99.90;196.50;224877.00;;;;4941522;29;20203;-86
2021/12/11 07:24:29;;;;;;;36.47;12.20;;;-0.70;99.90;196.50;224877.00;;;;4942829;29;20556;-88
2021/12/11 07:27:04;;;;;;;43.03;11.47;;;-0.70;99.90;196.50;224877.00;;;;4897948;29;20577;-87
2021/12/11 07:29:32;;;;;;;18.70;8.53;;;-0.80;99.90;196.50;224877.00;;;;4942534;29;20693;-88
2021/12/11 07:32:00;;;;;;;29.00;10.03;;;-0.80;99.90;196.50;224877.00;;;;4925910;28;20273;-88
2021/12/11 07:34:28;;;;;;;35.50;12.90;;;-0.70;99.90;196.50;224877.00;;;;4910111;29;20234;-89
2021/12/11 07:37:00;;;;;;;75.83;16.50;;;-0.70;99.90;196.50;224877.00;;;;4927609;29;20666;-87
2021/12/11 07:39:27;;;;;;;40.17;12.77;;;-0.70;99.90;196.50;224877.00;;;;4941827;29;20191;-89
2021/12/11 07:41:56;;;;;;;105.13;16.50;;;-0.80;99.90;196.50;224877.00;;;;4927016;29;20262;-89
2021/12/11 07:44:25;;;;;;;351.63;31.40;;;-0.80;99.90;196.50;224877.00;;;;4926386;29;20642;-89
2021/12/11 07:46:57;;;;;;;195.13;21.43;;;-0.70;99.90;196.50;224877.00;;;;4950031;29;20205;-87
2021/12/11 07:49:25;;;;;;;210.57;23.97;;;-0.70;99.90;196.50;224877.00;;;;4943628;29;20292;-89
2021/12/11 07:51:52;;;;;;;113.70;19.73;;;-0.70;99.90;196.50;224877.00;;;;4941050;29;20543;-87
2021/12/11 07:54:20;;;;;;;37.30;11.83;;;-0.70;99.90;196.50;224877.00;;;;4940722;28;20266;-88
2021/12/11 07:56:48;;;;;;;25.63;9.50;;;-0.70;99.90;196.50;224877.00;;;;4939698;29;20243;-88
2021/12/11 07:59:16;;;;;;;18.73;9.83;;;-0.70;99.90;196.50;224877.00;;;;4926528;29;20685;-87
2021/12/11 08:01:52;;;;;;;32.23;12.30;;;-0.70;99.90;196.50;224877.00;;;;4959120;29;20191;-88
2021/12/11 08:04:22;;;;;;;43.63;14.23;;;-0.70;99.90;196.50;224877.00;;;;4942115;29;20206;-88
2021/12/11 08:06:51;;;;;;;100.83;15.57;;;-0.70;99.90;196.50;224877.00;;;;4942438;29;20250;-88
2021/12/11 08:09:21;;;;;;;49.90;14.27;;;-0.70;99.90;196.50;224877.00;;;;4926291;29;20623;-88
2021/12/11 08:11:51;;;;;;;31.57;13.27;;;-0.70;99.90;196.50;224877.00;;;;4942451;29;20411;-88
2021/12/11 08:14:21;;;;;;;11.73;7.47;;;-0.70;99.90;196.50;224877.00;;;;4925486;28;20753;-88
2021/12/11 08:16:58;;;;;;;11.73;8.40;;;-0.70;99.90;196.50;224877.00;;;;4926153;29;20203;-88
2021/12/11 08:19:28;;;;;;;10.70;7.07;;;-0.70;99.90;196.50;224877.00;;;;4941495;29;20528;-88
2021/12/11 08:22:00;;;;;;;10.27;6.87;;;-0.70;99.90;196.50;224877.00;;;;4941590;29;20199;-89
2021/12/11 08:24:29;;;;;;;13.33;7.17;;;-0.70;99.90;196.50;224877.00;;;;4941789;29;20200;-88
2021/12/11 08:27:17;;;;;;;8.40;6.53;;;-0.70;99.90;196.50;224877.00;;;;4925641;29;20205;-88
2021/12/11 08:29:49;;;;;;;8.93;6.53;;;-0.70;99.90;196.50;224877.00;;;;4957070;28;20675;-88
2021/12/11 08:32:18;;;;;;;10.53;7.53;;;-0.70;99.90;196.50;224877.00;;;;4924595;29;20198;-88
2021/12/11 08:34:48;;;;;;;9.60;7.10;;;-0.60;99.90;196.50;224877.00;;;;4924260;28;20226;-88
2021/12/11 08:37:25;;;;;;;10.20;7.03;;;-0.60;99.90;196.50;224877.00;;;;4941342;29;20202;-88
2021/12/11 08:39:54;;;;;;;10.17;6.80;;;-0.60;99.90;196.50;224877.00;;;;4941085;29;20183;-88
2021/12/11 08:42:28;;;;;;;13.27;7.33;;;-0.60;99.90;196.50;224877.00;;;;4945492;29;20187;-89
2021/12/11 08:45:05;;;;;;;9.53;6.23;;;-0.60;99.90;196.50;224877.00;;;;4940866;29;20198;-88
2021/12/11 08:47:40;;;;;;;13.60;7.03;;;-0.60;84.10;196.50;224877.00;;;;4940735;29;20187;-85
2021/12/11 08:50:13;;;;;;;9.07;6.33;;;-0.60;68.10;196.50;224877.00;;;;4940065;29;20195;-88
2021/12/11 08:52:44;;;;;;;9.47;6.63;;;-0.50;25.60;196.50;224877.00;;;;4930089;28;20195;-87
2021/12/11 08:55:28;;;;;;;10.00;7.13;;;-0.50;7.80;196.50;224877.00;;;;4936471;29;20187;-87
2021/12/11 08:57:57;;;;;;;9.97;7.73;;;-0.50;1.00;196.50;224877.00;;;;4941352;29;20214;-89
2021/12/11 09:00:35;;;;;;;8.67;6.17;;;-0.50;1.00;196.50;224877.00;;;;4957947;28;20198;-89
2021/12/11 09:03:37;;;;;;;9.67;6.53;;;-0.50;1.00;196.50;224877.00;;;;4931230;28;20195;-86
2021/12/11 09:06:28;;;;;;;10.90;8.07;;;-0.40;1.00;196.50;224877.00;;;;4939655;28;20203;-88
2021/12/11 09:09:03;;;;;;;9.90;6.23;;;-0.30;1.00;196.50;224877.00;;;;4955855;28;20187;-88
2021/12/11 09:11:47;;;;;;;6.70;5.80;;;-0.20;1.00;196.50;224877.00;;;;4948532;29;20198;-88
2021/12/11 09:14:32;;;;;;;12.23;6.83;;;-0.20;1.00;196.50;224877.00;;;;4947279;28;20223;-89
2021/12/11 09:17:39;;;;;;;9.07;6.30;;;-0.20;1.00;196.50;224877.00;;;;4948550;28;20682;-87
2021/12/11 09:20:14;;;;;;;10.07;6.27;;;-0.10;1.00;196.50;224877.00;;;;4945429;29;20203;-86
2021/12/11 09:22:49;;;;;;;8.73;5.97;;;0.00;1.00;196.50;224877.00;;;;4944641;28;20205;-87
2021/12/11 09:25:58;;;;;;;7.37;5.90;;;0.00;1.00;196.50;224877.00;;;;4923546;28;20187;-86
2021/12/11 09:28:52;;;;;;;7.57;5.57;;;0.10;1.00;196.50;224877.00;;;;4925629;28;20720;-87
2021/12/11 09:31:37;;;;;;;9.73;5.50;;;0.10;1.00;196.50;224877.00;;;;4926446;29;20206;-87
2021/12/11 09:34:22;;;;;;;7.57;5.07;;;0.00;99.90;196.50;224877.00;;;;4941758;28;20237;-88
2021/12/11 09:36:57;;;;;;;7.07;5.53;;;0.20;99.90;196.50;224877.00;;;;4926201;29;20214;-88
2021/12/11 09:39:52;;;;;;;9.17;5.27;;;0.10;99.90;196.50;224877.00;;;;4938806;28;20191;-88
2021/12/11 09:42:19;;;;;;;7.00;5.33;;;0.00;99.90;196.50;224877.00;;;;4926584;29;20192;-89
2021/12/11 09:45:02;;;;;;;6.53;5.00;;;0.10;99.90;196.50;224877.00;;;;4940001;29;20230;-87
2021/12/11 09:47:39;;;;;;;8.10;5.47;;;0.10;99.90;196.50;224877.00;;;;4940431;29;20222;-88
2021/12/11 09:50:25;;;;;;;7.20;5.40;;;0.10;99.90;196.50;224877.00;;;;4949354;28;20195;-86
2021/12/11 09:52:52;;;;;;;6.40;5.07;;;0.10;99.90;196.50;224877.00;;;;4937590;29;20183;-86
2021/12/11 09:55:33;;;;;;;6.40;5.33;;;0.10;99.90;196.50;224877.00;;;;4924011;29;20203;-86
2021/12/11 09:58:05;;;;;;;7.50;5.63;;;0.00;99.90;196.50;224877.00;;;;4945609;29;20198;-86
2021/12/11 10:00:58;;;;;;;6.77;4.77;;;-0.10;99.90;196.50;224877.00;;;;4941929;28;20275;-85
2021/12/11 10:03:31;;;;;;;6.33;5.13;;;-0.10;99.90;196.50;224877.00;;;;4939516;28;20710;-86
2021/12/11 10:06:26;;;;;;;7.20;5.00;;;0.00;99.90;196.50;224877.00;;;;4920056;29;20198;-86
2021/12/11 10:09:17;;;;;;;6.50;5.07;;;0.00;99.90;196.50;224877.00;;;;4908720;29;20250;-86
2021/12/11 10:12:15;;;;;;;5.67;4.70;;;0.00;99.90;196.50;224877.00;;;;4919391;29;20436;-86
2021/12/11 10:15:15;;;;;;;6.73;4.90;;;0.00;99.90;196.50;224877.00;;;;4916383;28;20214;-85
2021/12/11 10:17:56;;;;;;;6.10;4.53;;;0.00;74.80;196.50;224877.00;;;;4937005;28;20628;-85
2021/12/11 10:20:36;;;;;;;7.57;5.40;;;0.00;92.20;196.50;224877.00;;;;4950958;28;20245;-85
2021/12/11 10:23:08;;;;;;;6.90;4.97;;;0.00;99.90;196.50;224877.00;;;;4927691;29;20540;-85
2021/12/11 10:25:38;;;;;;;7.40;5.30;;;0.00;84.30;196.50;224877.00;;;;4920021;29;20199;-86
2021/12/11 10:28:12;;;;;;;8.70;5.53;;;-0.10;37.20;196.50;224877.00;;;;4935101;28;20199;-85
2021/12/11 10:30:52;;;;;;;7.43;5.30;;;-0.10;3.00;196.50;224877.00;;;;4935760;29;20207;-85
2021/12/11 10:33:24;;;;;;;6.70;5.23;;;-0.20;7.40;196.50;224877.00;;;;4917029;29;20191;-84
2021/12/11 10:35:57;;;;;;;8.57;5.87;;;-0.20;27.50;196.50;224877.00;;;;4940803;29;20258;-85
2021/12/11 10:38:28;;;;;;;7.90;6.20;;;-0.10;92.80;196.50;224877.00;;;;4941433;28;20202;-86
2021/12/11 10:41:16;;;;;;;6.97;5.40;;;0.00;99.90;196.50;224877.00;;;;4943716;29;20238;-87
2021/12/11 10:43:56;;;;;;;8.17;5.93;;;0.10;87.50;196.50;224877.00;;;;4923116;29;20207;-87
2021/12/11 10:46:30;;;;;;;10.40;5.77;;;0.20;53.90;196.50;224877.00;;;;4935187;28;20221;-88
2021/12/11 10:48:59;;;;;;;6.90;5.30;;;0.20;1.00;196.50;224877.00;;;;4967283;28;20199;-89
2021/12/11 10:51:41;;;;;;;6.70;5.43;;;0.20;1.00;196.50;224877.00;;;;4939190;29;20584;-88
2021/12/11 10:54:10;;;;;;;8.37;6.07;;;0.20;1.00;196.50;224877.00;;;;4947247;28;20210;-88
2021/12/11 10:56:40;;;;;;;6.90;5.20;;;0.20;1.00;196.50;224877.00;;;;4944463;28;20790;-88
2021/12/11 10:59:17;;;;;;;7.33;5.30;;;0.20;1.00;196.50;224877.00;;;;4941860;28;20598;-91
2021/12/11 11:02:30;;;;;;;16.13;9.37;;;0.20;1.00;196.50;224877.00;;;;4944303;29;20195;-90
2021/12/11 11:05:08;;;;;;;30.40;14.33;;;0.20;1.00;196.50;224877.00;;;;4927708;29;20650;-90
2021/12/11 11:07:37;;;;;;;10.20;6.73;;;0.30;5.10;196.50;224877.00;;;;4934801;28;20200;-90
2021/12/11 11:10:27;;;;;;;20.27;12.87;;;0.40;1.00;196.50;224877.00;;;;4934672;29;20223;-90
2021/12/11 11:12:58;;;;;;;7.60;6.27;;;0.40;1.00;196.50;224877.00;;;;4952254;28;20214;-89
2021/12/11 11:15:30;;;;;;;8.77;6.20;;;0.40;1.00;196.50;224877.00;;;;4935765;28;20290;-89
2021/12/11 11:17:58;;;;;;;8.20;5.17;;;0.40;1.00;196.50;224877.00;;;;4918689;29;20231;-90
2021/12/11 11:20:33;;;;;;;7.27;5.17;;;0.40;1.00;196.50;224877.00;;;;4924967;28;20219;-89
2021/12/11 11:23:04;;;;;;;7.20;5.20;;;0.40;1.00;196.50;224877.00;;;;4920755;29;20190;-89
2021/12/11 11:25:41;;;;;;;8.70;5.47;;;0.40;1.00;196.50;224877.00;;;;4937537;28;20203;-90
2021/12/11 11:28:16;;;;;;;7.73;5.53;;;0.50;1.00;196.50;224877.00;;;;4940884;28;20191;-88
2021/12/11 11:30:53;;;;;;;7.10;6.13;;;0.60;1.00;196.50;224877.00;;;;4961043;28;20539;-89
2021/12/11 11:33:43;;;;;;;6.83;5.30;;;0.60;1.00;196.50;224877.00;;;;4947507;28;20201;-90
2021/12/11 11:36:17;;;;;;;6.17;5.33;;;0.70;1.00;196.50;224877.00;;;;4940261;29;20250;-90
2021/12/11 11:39:10;;;;;;;5.93;4.97;;;0.70;1.00;196.50;224877.00;;;;4956243;29;20203;-92
2021/12/11 11:41:46;;;;;;;6.30;4.90;;;0.70;1.00;196.50;224877.00;;;;4924431;29;20333;-91
2021/12/11 11:44:15;;;;;;;6.37;5.13;;;0.70;1.00;196.50;224877.00;;;;4950318;28;20210;-91
2021/12/11 11:46:44;;;;;;;5.57;4.70;;;0.80;1.00;196.50;224877.00;;;;4924481;29;20579;-93
2021/12/11 11:49:15;;;;;;;6.53;5.07;;;0.80;1.00;196.50;224877.00;;;;4951207;28;20210;-90
2021/12/11 11:51:52;;;;;;;8.20;5.00;;;0.80;1.00;196.50;224877.00;;;;4936625;28;20218;-90
2021/12/11 11:54:24;;;;;;;6.23;5.10;;;0.90;1.00;196.50;224877.00;;;;4944542;28;20221;-90
2021/12/11 11:57:21;;;;;;;7.47;5.77;;;0.80;1.00;196.50;224877.00;;;;4924753;28;20215;-90
2021/12/11 11:59:51;;;;;;;6.93;5.10;;;0.80;1.00;196.50;224877.00;;;;4956156;29;20192;-90
2021/12/11 12:02:23;;;;;;;5.93;4.60;;;0.70;1.00;196.50;224877.00;;;;4925988;28;20670;-89
2021/12/11 12:04:56;;;;;;;6.37;5.20;;;0.60;1.00;196.50;224877.00;;;;4929629;29;20227;-88
2021/12/11 12:07:28;;;;;;;5.80;5.00;;;0.50;1.00;196.50;224877.00;;;;4938675;29;20214;-90
2021/12/11 12:10:03;;;;;;;5.87;4.37;;;0.30;1.00;196.50;224877.00;;;;4943538;29;20206;-89
2021/12/11 12:12:30;;;;;;;10.40;6.93;;;0.10;1.00;196.50;224877.00;;;;4920524;29;20203;-90
2021/12/11 12:14:59;;;;;;;8.80;6.10;;;0.00;1.00;196.50;224877.00;;;;4950882;28;20225;-90
2021/12/11 12:17:30;;;;;;;10.13;6.20;;;0.00;1.00;-100.50;224873.00;;;;4943191;29;20210;-91
2021/12/11 12:19:59;;;;;;;7.50;5.30;;;0.00;1.00;196.50;224877.00;;;;4940785;28;20255;-90
2021/12/11 12:22:28;;;;;;;6.37;5.37;;;0.00;1.00;196.50;224877.00;;;;4940357;29;20184;-91
2021/12/11 12:24:58;;;;;;;7.70;5.77;;;0.10;1.00;196.50;224877.00;;;;4934064;29;20610;-90
2021/12/11 12:27:31;;;;;;;6.63;5.77;;;0.10;1.00;196.50;224877.00;;;;4933626;29;20674;-91
2021/12/11 12:30:08;;;;;;;7.67;5.47;;;0.10;1.00;196.50;224877.00;;;;4974571;28;20265;-92
2021/12/11 12:32:36;;;;;;;7.40;6.10;;;0.20;1.00;196.50;224877.00;;;;4948774;28;20202;-84
2021/12/11 12:35:14;;;;;;;8.10;6.27;;;0.30;1.00;196.50;224877.00;;;;4944348;28;20223;-84
2021/12/11 12:37:43;;;;;;;7.30;6.07;;;0.40;1.00;196.50;224877.00;;;;4934452;29;20652;-85
2021/12/11 12:40:28;;;;;;;7.37;5.60;;;0.40;1.00;196.50;224877.00;;;;4969645;28;20276;-85
2021/12/11 12:43:10;;;;;;;7.80;6.10;;;0.40;1.00;196.50;224877.00;;;;4931079;28;20281;-85
2021/12/11 12:45:48;;;;;;;8.00;5.63;;;0.40;1.00;196.50;224877.00;;;;4931284;29;20658;-85
2021/12/11 12:48:22;;;;;;;7.90;5.73;;;0.40;1.00;196.50;224877.00;;;;4955011;28;20728;-85
2021/12/11 12:51:00;;;;;;;10.03;8.43;;;0.40;1.00;196.50;224877.00;;;;4932675;29;20251;-85
2021/12/11 12:53:34;;;;;;;7.53;5.87;;;0.40;1.00;196.50;224877.00;;;;4931967;29;20262;-84
2021/12/11 12:56:08;;;;;;;8.50;7.20;;;0.40;1.00;196.50;224877.00;;;;4938484;29;20674;-85
2021/12/11 12:59:05;;;;;;;7.63;5.40;;;0.40;1.00;196.50;224877.00;;;;4930438;28;20194;-84
2021/12/11 13:01:57;;;;;;;8.63;6.33;;;0.30;1.00;196.50;224877.00;;;;4937456;28;20285;-84
2021/12/11 13:04:33;;;;;;;8.67;6.90;;;0.20;1.00;196.50;224877.00;;;;4934306;28;20218;-84
2021/12/11 13:07:07;;;;;;;7.97;6.37;;;0.20;1.00;196.50;224877.00;;;;4930618;29;20241;-84
2021/12/11 13:09:45;;;;;;;24.83;16.33;;;0.20;1.00;196.50;224877.00;;;;4921420;28;20696;-84
2021/12/11 13:12:31;;;;;;;10.57;6.87;;;0.40;1.00;196.50;224877.00;;;;4934154;29;20290;-84
2021/12/11 13:15:09;;;;;;;13.97;7.43;;;0.40;1.00;196.50;224877.00;;;;4921312;29;20670;-85
2021/12/11 13:17:44;;;;;;;12.17;9.00;;;0.50;1.00;196.50;224877.00;;;;4945063;28;20701;-84
2021/12/11 13:20:20;;;;;;;33.23;19.27;;;0.50;1.00;196.50;224877.00;;;;4938522;28;20223;-84
2021/12/11 13:22:50;;;;;;;9.97;7.20;;;0.50;1.00;196.50;224877.00;;;;4930945;29;20211;-84
2021/12/11 13:25:56;;;;;;;9.37;7.10;;;0.50;1.00;196.50;224877.00;;;;4921857;29;20246;-84
2021/12/11 13:28:31;;;;;;;12.40;8.90;;;0.50;1.00;196.50;224877.00;;;;4939254;28;20206;-84
2021/12/11 13:31:07;;;;;;;9.10;7.50;;;0.50;1.00;196.50;224877.00;;;;4927877;28;20207;-84
2021/12/11 13:33:35;;;;;;;11.23;7.50;;;0.60;1.00;196.50;224877.00;;;;4922678;29;20196;-83
2021/12/11 13:36:08;;;;;;;9.13;6.43;;;0.60;1.00;196.50;224877.00;;;;4935682;28;20222;-83
2021/12/11 13:38:43;;;;;;;8.90;5.90;;;0.80;1.00;196.50;224877.00;;;;4924219;29;20262;-84
2021/12/11 13:41:18;;;;;;;6.87;5.57;;;0.70;1.00;196.50;224877.00;;;;4935752;29;20187;-83
2021/12/11 13:44:08;;;;;;;6.90;5.73;;;0.60;1.00;196.50;224877.00;;;;4937744;29;20211;-83
2021/12/11 13:46:45;;;;;;;6.73;5.47;;;0.60;1.00;196.50;224877.00;;;;4939124;29;20195;-84
2021/12/11 13:49:13;;;;;;;7.93;5.67;;;0.60;1.00;196.50;224877.00;;;;4921769;28;20250;-84
2021/12/11 13:51:48;;;;;;;7.57;6.13;;;0.60;1.00;196.50;224877.00;;;;4922066;29;20600;-84
2021/12/11 13:54:16;;;;;;;9.63;6.27;;;0.60;1.00;196.50;224877.00;;;;4921447;29;20271;-84
2021/12/11 13:56:58;;;;;;;22.10;11.77;;;0.60;1.00;196.50;224877.00;;;;4936614;29;20254;-84
2021/12/11 13:59:26;;;;;;;233.47;88.80;;;0.40;1.00;196.50;224877.00;;;;4937016;29;20195;-83
2021/12/11 14:01:57;;;;;;;11.07;8.27;;;0.40;1.00;196.50;224877.00;;;;4937222;29;20187;-83
2021/12/11 14:04:28;;;;;;;9.20;8.10;;;0.50;1.00;196.50;224877.00;;;;4953006;29;20213;-84
2021/12/11 14:07:13;;;;;;;6.90;5.37;;;0.40;1.00;196.50;224877.00;;;;4952937;29;20202;-83
2021/12/11 14:09:59;;;;;;;8.10;6.93;;;0.30;1.00;196.50;224877.00;;;;4937919;29;20666;-83
2021/12/11 14:12:30;;;;;;;7.73;5.93;;;0.30;1.00;196.50;224877.00;;;;4937548;29;20207;-83
2021/12/11 14:15:00;;;;;;;8.30;6.13;;;0.30;1.00;196.50;224877.00;;;;4937948;29;20207;-83
2021/12/11 14:17:28;;;;;;;7.97;6.30;;;0.30;1.00;196.50;224877.00;;;;4937567;29;20758;-83
2021/12/11 14:19:56;;;;;;;10.90;8.23;;;0.40;1.00;196.50;224877.00;;;;4939100;29;20845;-83
2021/12/11 14:22:25;;;;;;;9.03;5.33;;;0.40;1.00;196.50;224877.00;;;;4954331;29;20191;-83
2021/12/11 14:24:53;;;;;;;7.27;5.50;;;0.50;1.00;196.50;224877.00;;;;4921856;29;20266;-83
2021/12/11 14:27:21;;;;;;;8.90;6.27;;;0.50;1.00;196.50;224877.00;;;;4937748;29;20233;-83
2021/12/11 14:29:57;;;;;;;8.27;6.20;;;0.40;1.00;196.50;224877.00;;;;4937693;29;20249;-83
2021/12/11 14:32:34;;;;;;;6.07;4.87;;;0.40;1.00;196.50;224877.00;;;;4937316;28;20585;-82
2021/12/11 14:35:09;;;;;;;9.00;5.83;;;0.30;1.00;196.50;224877.00;;;;4938046;29;20592;-82
2021/12/11 14:37:36;;;;;;;9.57;6.33;;;0.30;1.00;196.50;224877.00;;;;4921510;28;20237;-82
2021/12/11 14:40:08;;;;;;;6.40;5.10;;;0.20;1.00;196.50;224877.00;;;;4952827;28;20195;-82
2021/12/11 14:42:35;;;;;;;11.27;5.57;;;0.30;1.00;196.50;224877.00;;;;4921948;28;20662;-82
2021/12/11 14:45:11;;;;;;;6.77;5.30;;;0.20;1.00;196.50;224877.00;;;;4954304;28;20531;-82
2021/12/11 14:47:40;;;;;;;8.73;6.03;;;0.20;1.00;196.50;224877.00;;;;4937158;29;20313;-82
2021/12/11 14:50:11;;;;;;;8.40;6.27;;;0.10;1.00;196.50;224877.00;;;;4953062;28;20561;-82
2021/12/11 14:52:39;;;;;;;8.83;5.77;;;0.00;1.00;196.50;224877.00;;;;4937128;29;20199;-80
2021/12/11 14:55:22;;;;;;;9.33;6.33;;;-0.10;1.00;196.50;224877.00;;;;4953077;28;20218;-81
2021/12/11 14:57:49;;;;;;;8.63;6.27;;;-0.10;1.00;196.50;224877.00;;;;4937158;29;20234;-80
2021/12/11 15:00:21;;;;;;;10.63;6.97;;;-0.10;1.00;196.50;224877.00;;;;4937788;28;20666;-80
2021/12/11 15:02:50;;;;;;;9.13;6.13;;;-0.10;1.00;196.50;224877.00;;;;4940917;29;20234;-80
2021/12/11 15:05:26;;;;;;;11.13;6.50;;;-0.10;1.00;196.50;224877.00;;;;4924924;29;20195;-80
2021/12/11 15:07:53;;;;;;;18.07;13.20;;;-0.10;10.90;196.50;224877.00;;;;4925231;29;20722;-81
2021/12/11 15:10:33;;;;;;;10.63;7.00;;;-0.10;19.70;196.50;224877.00;;;;4924791;29;20652;-80
2021/12/11 15:13:23;;;;;;;12.30;8.43;;;-0.20;39.20;196.50;224877.00;;;;4956682;29;20678;-81
2021/12/11 15:15:55;;;;;;;11.47;7.47;;;-0.20;89.30;196.50;224877.00;;;;4956371;29;20210;-80
2021/12/11 15:18:24;;;;;;;7.53;5.90;;;-0.20;99.90;196.50;224877.00;;;;4940308;29;20206;-80
2021/12/11 15:20:58;;;;;;;7.60;5.57;;;-0.20;99.90;196.50;224877.00;;;;4957559;29;20686;-80
2021/12/11 15:23:29;;;;;;;8.10;6.27;;;-0.20;99.90;196.50;224877.00;;;;4956373;29;20187;-80
2021/12/11 15:25:58;;;;;;;10.77;7.17;;;-0.20;99.90;196.50;224877.00;;;;4956325;29;20203;-80
2021/12/11 15:28:27;;;;;;;14.13;6.80;;;-0.20;99.90;196.50;224877.00;;;;4940286;29;20227;-80
2021/12/11 15:31:06;;;;;;;11.07;6.90;;;-0.30;99.90;196.50;224877.00;;;;4940399;29;20203;-80
2021/12/11 15:33:42;;;;;;;7.83;5.90;;;-0.30;99.90;196.50;224877.00;;;;4940784;29;20666;-80
2021/12/11 15:36:11;;;;;;;8.93;6.20;;;-0.30;99.90;196.50;224877.00;;;;4924315;29;20212;-80
2021/12/11 15:38:42;;;;;;;9.27;6.67;;;-0.20;99.90;196.50;224877.00;;;;4940599;29;20275;-80
2021/12/11 15:41:10;;;;;;;11.33;6.87;;;-0.20;99.90;196.50;224877.00;;;;4940052;28;20230;-81
2021/12/11 15:43:40;;;;;;;8.00;5.63;;;-0.20;99.90;196.50;224877.00;;;;4957194;29;20745;-80
2021/12/11 15:46:12;;;;;;;8.43;6.17;;;-0.20;99.90;196.50;224877.00;;;;4940208;29;20191;-81
2021/12/11 15:48:42;;;;;;;8.50;5.97;;;-0.20;99.90;196.50;224877.00;;;;4924403;29;20231;-80